sensor_id;sensor_type;location;lat;lon;timestamp;temperature;humidity
73576;DHT22;61859;49.204;8.140;2023-02-15T00:01:36;1.50;99.90
73576;DHT22;61859;49.204;8.140;2023-02-15T00:04:02;1.70;99.90
73576;DHT22;61859;49.204;8.140;2023-02-15T00:06:27;1.70;99.90
73576;DHT22;61859;49.204;8.140;2023-02-15T00:08:54;1.70;99.90
73576;DHT22;61859;49.204;8.140;2023-02-15T00:11:20;1.70;99.90
73576;DHT22;61859;49.204;8.140;2023-02-15T00:16:31;1.60;99.90
73576;DHT22;61859;49.204;8.140;2023-02-15T00:18:57;1.80;99.90
73576;DHT22;61859;49.204;8.140;2023-02-15T00:21:22;1.50;99.90
73576;DHT22;61859;49.204;8.140;2023-02-15T00:23:48;1.70;99.90
73576;DHT22;61859;49.204;8.140;2023-02-15T00:26:13;1.50;99.90
73576;DHT22;61859;49.204;8.140;2023-02-15T00:28:39;1.60;99.90
73576;DHT22;61859;49.204;8.140;2023-02-15T00:31:06;1.60;99.90
73576;DHT22;61859;49.204;8.140;2023-02-15T00:33:32;1.70;99.90
73576;DHT22;61859;49.204;8.140;2023-02-15T00:35:59;1.80;99.90
73576;DHT22;61859;49.204;8.140;2023-02-15T00:38:26;1.70;99.90
73576;DHT22;61859;49.204;8.140;2023-02-15T00:41:00;1.70;99.90
73576;DHT22;61859;49.204;8.140;2023-02-15T00:43:27;1.60;99.90
73576;DHT22;61859;49.204;8.140;2023-02-15T00:45:53;1.70;99.90
73576;DHT22;61859;49.204;8.140;2023-02-15T00:48:18;1.60;99.90
73576;DHT22;61859;49.204;8.140;2023-02-15T00:50:53;1.60;99.90
73576;DHT22;61859;49.204;8.140;2023-02-15T00:53:19;1.50;99.90
73576;DHT22;61859;49.204;8.140;2023-02-15T00:55:45;1.50;99.90
73576;DHT22;61859;49.204;8.140;2023-02-15T00:58:11;1.30;99.90
73576;DHT22;61859;49.204;8.140;2023-02-15T01:00:38;1.50;99.90
73576;DHT22;61859;49.204;8.140;2023-02-15T01:03:05;1.50;99.90
73576;DHT22;61859;49.204;8.140;2023-02-15T01:05:31;1.60;99.90
73576;DHT22;61859;49.204;8.140;2023-02-15T01:07:57;1.60;99.90
73576;DHT22;61859;49.204;8.140;2023-02-15T01:10:23;1.50;99.90
73576;DHT22;61859;49.204;8.140;2023-02-15T01:12:50;1.50;99.90
73576;DHT22;61859;49.204;8.140;2023-02-15T01:15:16;1.50;99.90
73576;DHT22;61859;49.204;8.140;2023-02-15T01:17:42;1.40;99.90
73576;DHT22;61859;49.204;8.140;2023-02-15T01:20:09;1.30;99.90
73576;DHT22;61859;49.204;8.140;2023-02-15T01:22:35;1.40;99.90
73576;DHT22;61859;49.204;8.140;2023-02-15T01:25:00;1.30;99.90
73576;DHT22;61859;49.204;8.140;2023-02-15T01:27:26;1.40;99.90
73576;DHT22;61859;49.204;8.140;2023-02-15T01:29:51;1.40;99.90
73576;DHT22;61859;49.204;8.140;2023-02-15T01:32:17;1.60;99.90
73576;DHT22;61859;49.204;8.140;2023-02-15T01:34:42;1.30;99.90
73576;DHT22;61859;49.204;8.140;2023-02-15T01:37:08;1.40;99.90
73576;DHT22;61859;49.204;8.140;2023-02-15T01:39:33;1.30;99.90
73576;DHT22;61859;49.204;8.140;2023-02-15T01:41:59;1.40;99.90
73576;DHT22;61859;49.204;8.140;2023-02-15T01:47:47;1.10;99.90
73576;DHT22;61859;49.204;8.140;2023-02-15T01:52:43;1.30;99.90
73576;DHT22;61859;49.204;8.140;2023-02-15T01:55:12;1.20;99.90
73576;DHT22;61859;49.204;8.140;2023-02-15T01:57:38;1.30;99.90
73576;DHT22;61859;49.204;8.140;2023-02-15T02:00:06;1.10;99.90
73576;DHT22;61859;49.204;8.140;2023-02-15T02:02:33;1.30;99.90
73576;DHT22;61859;49.204;8.140;2023-02-15T02:05:00;1.10;99.90
73576;DHT22;61859;49.204;8.140;2023-02-15T02:07:33;1.10;99.90
73576;DHT22;61859;49.204;8.140;2023-02-15T02:10:01;1.10;99.90
73576;DHT22;61859;49.204;8.140;2023-02-15T02:12:27;1.10;99.90
73576;DHT22;61859;49.204;8.140;2023-02-15T02:14:53;1.10;99.90
73576;DHT22;61859;49.204;8.140;2023-02-15T02:20:26;1.10;99.90
73576;DHT22;61859;49.204;8.140;2023-02-15T02:23:24;1.20;99.90
73576;DHT22;61859;49.204;8.140;2023-02-15T02:26:12;1.20;99.90
73576;DHT22;61859;49.204;8.140;2023-02-15T02:32:00;1.50;99.90
73576;DHT22;61859;49.204;8.140;2023-02-15T02:40:19;1.30;99.90
73576;DHT22;61859;49.204;8.140;2023-02-15T02:42:56;1.30;99.90
73576;DHT22;61859;49.204;8.140;2023-02-15T02:45:44;1.20;99.90
73576;DHT22;61859;49.204;8.140;2023-02-15T02:48:21;1.30;99.90
73576;DHT22;61859;49.204;8.140;2023-02-15T02:50:48;1.20;99.90
73576;DHT22;61859;49.204;8.140;2023-02-15T02:53:13;1.20;99.90
73576;DHT22;61859;49.204;8.140;2023-02-15T02:55:58;1.30;99.90
73576;DHT22;61859;49.204;8.140;2023-02-15T02:58:44;1.40;99.90
73576;DHT22;61859;49.204;8.140;2023-02-15T03:01:37;1.30;99.90
73576;DHT22;61859;49.204;8.140;2023-02-15T03:04:11;1.20;99.90
73576;DHT22;61859;49.204;8.140;2023-02-15T03:06:43;1.20;99.90
73576;DHT22;61859;49.204;8.140;2023-02-15T03:09:31;1.40;99.90
73576;DHT22;61859;49.204;8.140;2023-02-15T03:14:40;1.20;99.90
73576;DHT22;61859;49.204;8.140;2023-02-15T03:17:07;1.20;99.90
73576;DHT22;61859;49.204;8.140;2023-02-15T03:19:35;1.20;99.90
73576;DHT22;61859;49.204;8.140;2023-02-15T03:22:15;1.20;99.90
73576;DHT22;61859;49.204;8.140;2023-02-15T03:24:47;1.30;99.90
73576;DHT22;61859;49.204;8.140;2023-02-15T03:27:18;1.20;99.90
73576;DHT22;61859;49.204;8.140;2023-02-15T03:29:46;1.50;99.90
73576;DHT22;61859;49.204;8.140;2023-02-15T03:32:14;1.10;99.90
73576;DHT22;61859;49.204;8.140;2023-02-15T03:34:41;1.40;99.90
73576;DHT22;61859;49.204;8.140;2023-02-15T03:40:07;1.20;99.90
73576;DHT22;61859;49.204;8.140;2023-02-15T03:43:00;1.20;99.90
73576;DHT22;61859;49.204;8.140;2023-02-15T03:45:30;1.40;99.90
73576;DHT22;61859;49.204;8.140;2023-02-15T03:47:58;1.50;99.90
73576;DHT22;61859;49.204;8.140;2023-02-15T03:50:27;1.60;99.90
73576;DHT22;61859;49.204;8.140;2023-02-15T03:53:15;1.20;99.90
73576;DHT22;61859;49.204;8.140;2023-02-15T03:55:42;1.40;99.90
73576;DHT22;61859;49.204;8.140;2023-02-15T03:58:11;1.50;99.90
73576;DHT22;61859;49.204;8.140;2023-02-15T04:00:58;1.30;99.90
73576;DHT22;61859;49.204;8.140;2023-02-15T04:03:48;1.40;99.90
73576;DHT22;61859;49.204;8.140;2023-02-15T04:06:15;1.30;99.90
73576;DHT22;61859;49.204;8.140;2023-02-15T04:08:40;1.20;99.90
73576;DHT22;61859;49.204;8.140;2023-02-15T04:11:25;1.30;99.90
73576;DHT22;61859;49.204;8.140;2023-02-15T04:13:50;1.40;99.90
73576;DHT22;61859;49.204;8.140;2023-02-15T04:16:25;1.30;99.90
73576;DHT22;61859;49.204;8.140;2023-02-15T04:18:51;1.40;99.90
73576;DHT22;61859;49.204;8.140;2023-02-15T04:21:34;1.30;99.90
73576;DHT22;61859;49.204;8.140;2023-02-15T04:24:18;1.30;99.90
73576;DHT22;61859;49.204;8.140;2023-02-15T04:27:04;1.30;99.90
73576;DHT22;61859;49.204;8.140;2023-02-15T04:29:30;1.30;99.90
73576;DHT22;61859;49.204;8.140;2023-02-15T04:31:59;1.40;99.90
73576;DHT22;61859;49.204;8.140;2023-02-15T04:34:25;1.40;99.90
73576;DHT22;61859;49.204;8.140;2023-02-15T04:36:51;1.30;99.90
73576;DHT22;61859;49.204;8.140;2023-02-15T04:39:17;1.40;99.90
73576;DHT22;61859;49.204;8.140;2023-02-15T04:41:43;1.40;99.90
73576;DHT22;61859;49.204;8.140;2023-02-15T04:44:09;1.30;99.90
73576;DHT22;61859;49.204;8.140;2023-02-15T04:46:35;1.20;99.90
73576;DHT22;61859;49.204;8.140;2023-02-15T04:49:01;1.30;99.90
73576;DHT22;61859;49.204;8.140;2023-02-15T04:51:26;1.10;99.90
73576;DHT22;61859;49.204;8.140;2023-02-15T04:53:52;1.10;99.90
73576;DHT22;61859;49.204;8.140;2023-02-15T04:56:19;1.10;99.90
73576;DHT22;61859;49.204;8.140;2023-02-15T04:58:44;1.20;99.90
73576;DHT22;61859;49.204;8.140;2023-02-15T05:01:10;1.10;99.90
73576;DHT22;61859;49.204;8.140;2023-02-15T05:03:36;1.00;99.90
73576;DHT22;61859;49.204;8.140;2023-02-15T05:06:02;1.20;99.90
73576;DHT22;61859;49.204;8.140;2023-02-15T05:08:27;1.20;99.90
73576;DHT22;61859;49.204;8.140;2023-02-15T05:10:53;1.30;99.90
73576;DHT22;61859;49.204;8.140;2023-02-15T05:13:18;1.20;99.90
73576;DHT22;61859;49.204;8.140;2023-02-15T05:15:51;1.30;99.90
73576;DHT22;61859;49.204;8.140;2023-02-15T05:18:18;1.20;99.90
73576;DHT22;61859;49.204;8.140;2023-02-15T05:20:44;1.10;99.90
73576;DHT22;61859;49.204;8.140;2023-02-15T05:23:09;1.10;99.90
73576;DHT22;61859;49.204;8.140;2023-02-15T05:25:35;1.20;99.90
73576;DHT22;61859;49.204;8.140;2023-02-15T05:28:20;1.10;99.90
73576;DHT22;61859;49.204;8.140;2023-02-15T05:30:47;1.10;99.90
73576;DHT22;61859;49.204;8.140;2023-02-15T05:33:13;1.20;99.90
73576;DHT22;61859;49.204;8.140;2023-02-15T05:35:39;1.10;99.90
73576;DHT22;61859;49.204;8.140;2023-02-15T05:38:04;1.30;99.90
73576;DHT22;61859;49.204;8.140;2023-02-15T05:40:30;1.20;99.90
73576;DHT22;61859;49.204;8.140;2023-02-15T05:42:56;1.30;99.90
73576;DHT22;61859;49.204;8.140;2023-02-15T05:45:22;1.10;99.90
73576;DHT22;61859;49.204;8.140;2023-02-15T05:47:47;1.00;99.90
73576;DHT22;61859;49.204;8.140;2023-02-15T05:50:13;1.00;99.90
73576;DHT22;61859;49.204;8.140;2023-02-15T05:52:38;0.80;99.90
73576;DHT22;61859;49.204;8.140;2023-02-15T05:55:04;1.00;99.90
73576;DHT22;61859;49.204;8.140;2023-02-15T05:57:30;0.90;99.90
73576;DHT22;61859;49.204;8.140;2023-02-15T05:59:56;1.10;99.90
73576;DHT22;61859;49.204;8.140;2023-02-15T06:02:21;1.00;99.90
73576;DHT22;61859;49.204;8.140;2023-02-15T06:04:47;0.90;99.90
73576;DHT22;61859;49.204;8.140;2023-02-15T06:07:13;1.10;99.90
73576;DHT22;61859;49.204;8.140;2023-02-15T06:09:38;1.00;99.90
73576;DHT22;61859;49.204;8.140;2023-02-15T06:12:04;1.00;99.90
73576;DHT22;61859;49.204;8.140;2023-02-15T06:14:29;0.80;99.90
73576;DHT22;61859;49.204;8.140;2023-02-15T06:16:55;0.90;99.90
73576;DHT22;61859;49.204;8.140;2023-02-15T06:19:20;0.90;99.90
73576;DHT22;61859;49.204;8.140;2023-02-15T06:21:48;1.00;99.90
73576;DHT22;61859;49.204;8.140;2023-02-15T06:24:13;1.10;99.90
73576;DHT22;61859;49.204;8.140;2023-02-15T06:26:39;0.90;99.90
73576;DHT22;61859;49.204;8.140;2023-02-15T06:29:05;1.10;99.90
73576;DHT22;61859;49.204;8.140;2023-02-15T06:31:30;1.00;99.90
73576;DHT22;61859;49.204;8.140;2023-02-15T06:33:56;1.20;99.90
73576;DHT22;61859;49.204;8.140;2023-02-15T06:36:27;1.00;99.90
73576;DHT22;61859;49.204;8.140;2023-02-15T06:38:53;1.00;99.90
73576;DHT22;61859;49.204;8.140;2023-02-15T06:41:18;1.00;99.90
73576;DHT22;61859;49.204;8.140;2023-02-15T06:43:44;1.00;99.90
73576;DHT22;61859;49.204;8.140;2023-02-15T06:46:09;1.00;99.90
73576;DHT22;61859;49.204;8.140;2023-02-15T06:48:35;0.90;99.90
73576;DHT22;61859;49.204;8.140;2023-02-15T06:51:00;1.20;99.90
73576;DHT22;61859;49.204;8.140;2023-02-15T06:53:26;1.10;99.90
73576;DHT22;61859;49.204;8.140;2023-02-15T06:55:52;1.10;99.90
73576;DHT22;61859;49.204;8.140;2023-02-15T06:58:17;1.20;99.90
73576;DHT22;61859;49.204;8.140;2023-02-15T07:00:43;1.10;99.90
73576;DHT22;61859;49.204;8.140;2023-02-15T07:03:08;1.10;99.90
73576;DHT22;61859;49.204;8.140;2023-02-15T07:05:34;1.20;99.90
73576;DHT22;61859;49.204;8.140;2023-02-15T07:08:00;1.20;99.90
73576;DHT22;61859;49.204;8.140;2023-02-15T07:10:27;1.30;99.90
73576;DHT22;61859;49.204;8.140;2023-02-15T07:12:53;1.20;99.90
73576;DHT22;61859;49.204;8.140;2023-02-15T07:15:19;1.00;99.90
73576;DHT22;61859;49.204;8.140;2023-02-15T07:17:47;1.30;99.90
73576;DHT22;61859;49.204;8.140;2023-02-15T07:20:18;1.20;99.90
73576;DHT22;61859;49.204;8.140;2023-02-15T07:22:44;1.10;99.90
73576;DHT22;61859;49.204;8.140;2023-02-15T07:25:11;1.20;99.90
73576;DHT22;61859;49.204;8.140;2023-02-15T07:27:37;1.30;99.90
73576;DHT22;61859;49.204;8.140;2023-02-15T07:30:07;1.10;99.90
73576;DHT22;61859;49.204;8.140;2023-02-15T07:32:33;1.20;99.90
73576;DHT22;61859;49.204;8.140;2023-02-15T07:34:59;1.00;99.90
73576;DHT22;61859;49.204;8.140;2023-02-15T07:37:25;1.20;99.90
73576;DHT22;61859;49.204;8.140;2023-02-15T07:39:51;1.20;99.90
73576;DHT22;61859;49.204;8.140;2023-02-15T07:42:16;1.10;99.90
73576;DHT22;61859;49.204;8.140;2023-02-15T07:44:43;1.20;99.90
73576;DHT22;61859;49.204;8.140;2023-02-15T07:47:08;1.30;99.90
73576;DHT22;61859;49.204;8.140;2023-02-15T07:49:34;1.00;99.90
73576;DHT22;61859;49.204;8.140;2023-02-15T07:52:00;1.10;99.90
73576;DHT22;61859;49.204;8.140;2023-02-15T07:54:27;1.30;99.90
73576;DHT22;61859;49.204;8.140;2023-02-15T07:56:52;1.10;99.90
73576;DHT22;61859;49.204;8.140;2023-02-15T07:59:18;1.00;99.90
73576;DHT22;61859;49.204;8.140;2023-02-15T08:01:43;1.20;99.90
73576;DHT22;61859;49.204;8.140;2023-02-15T08:04:09;1.30;99.90
73576;DHT22;61859;49.204;8.140;2023-02-15T08:06:37;0.90;99.90
73576;DHT22;61859;49.204;8.140;2023-02-15T08:09:04;1.00;99.90
73576;DHT22;61859;49.204;8.140;2023-02-15T08:11:33;1.10;99.90
73576;DHT22;61859;49.204;8.140;2023-02-15T08:14:11;1.30;99.90
73576;DHT22;61859;49.204;8.140;2023-02-15T08:16:43;1.10;99.90
73576;DHT22;61859;49.204;8.140;2023-02-15T08:19:11;1.20;99.90
73576;DHT22;61859;49.204;8.140;2023-02-15T08:21:39;1.20;99.90
73576;DHT22;61859;49.204;8.140;2023-02-15T08:24:06;1.20;99.90
73576;DHT22;61859;49.204;8.140;2023-02-15T08:26:32;1.40;99.90
73576;DHT22;61859;49.204;8.140;2023-02-15T08:28:59;1.40;99.90
73576;DHT22;61859;49.204;8.140;2023-02-15T08:31:25;1.50;99.90
73576;DHT22;61859;49.204;8.140;2023-02-15T08:33:52;1.50;99.90
73576;DHT22;61859;49.204;8.140;2023-02-15T08:36:20;1.40;99.90
73576;DHT22;61859;49.204;8.140;2023-02-15T08:38:47;1.60;99.90
73576;DHT22;61859;49.204;8.140;2023-02-15T08:41:18;1.60;99.90
73576;DHT22;61859;49.204;8.140;2023-02-15T08:43:45;1.60;99.90
73576;DHT22;61859;49.204;8.140;2023-02-15T08:46:13;1.60;99.90
73576;DHT22;61859;49.204;8.140;2023-02-15T08:48:39;1.70;99.90
73576;DHT22;61859;49.204;8.140;2023-02-15T08:51:25;1.40;99.90
73576;DHT22;61859;49.204;8.140;2023-02-15T08:53:54;1.40;99.90
73576;DHT22;61859;49.204;8.140;2023-02-15T08:56:23;1.50;99.90
73576;DHT22;61859;49.204;8.140;2023-02-15T08:58:49;1.40;99.90
73576;DHT22;61859;49.204;8.140;2023-02-15T09:01:26;1.60;99.90
73576;DHT22;61859;49.204;8.140;2023-02-15T09:03:57;1.80;99.90
73576;DHT22;61859;49.204;8.140;2023-02-15T09:06:23;1.50;99.90
73576;DHT22;61859;49.204;8.140;2023-02-15T09:08:49;1.60;99.90
73576;DHT22;61859;49.204;8.140;2023-02-15T09:11:18;1.50;99.90
73576;DHT22;61859;49.204;8.140;2023-02-15T09:13:49;1.70;99.90
73576;DHT22;61859;49.204;8.140;2023-02-15T09:16:16;1.60;99.90
73576;DHT22;61859;49.204;8.140;2023-02-15T09:18:42;1.70;99.90
73576;DHT22;61859;49.204;8.140;2023-02-15T09:21:16;1.50;99.90
73576;DHT22;61859;49.204;8.140;2023-02-15T09:23:44;1.60;99.90
73576;DHT22;61859;49.204;8.140;2023-02-15T09:26:20;1.50;99.90
73576;DHT22;61859;49.204;8.140;2023-02-15T09:28:47;1.60;99.90
73576;DHT22;61859;49.204;8.140;2023-02-15T09:31:22;1.60;99.90
73576;DHT22;61859;49.204;8.140;2023-02-15T09:33:48;1.70;99.90
73576;DHT22;61859;49.204;8.140;2023-02-15T09:36:19;1.90;99.90
73576;DHT22;61859;49.204;8.140;2023-02-15T09:38:48;1.70;99.90
73576;DHT22;61859;49.204;8.140;2023-02-15T09:44:11;2.00;99.90
73576;DHT22;61859;49.204;8.140;2023-02-15T09:47:04;1.80;99.90
73576;DHT22;61859;49.204;8.140;2023-02-15T09:49:57;1.90;99.90
73576;DHT22;61859;49.204;8.140;2023-02-15T09:58:19;2.00;99.90
73576;DHT22;61859;49.204;8.140;2023-02-15T10:03:49;2.10;99.90
73576;DHT22;61859;49.204;8.140;2023-02-15T10:07:15;2.20;99.90
73576;DHT22;61859;49.204;8.140;2023-02-15T10:09:27;1.90;99.90
73576;DHT22;61859;49.204;8.140;2023-02-15T10:12:15;1.90;99.90
73576;DHT22;61859;49.204;8.140;2023-02-15T10:28:19;2.40;99.20
73576;DHT22;61859;49.204;8.140;2023-02-15T10:30:55;2.70;98.50
73576;DHT22;61859;49.204;8.140;2023-02-15T10:33:39;2.80;98.20
73576;DHT22;61859;49.204;8.140;2023-02-15T10:36:08;2.60;98.20
73576;DHT22;61859;49.204;8.140;2023-02-15T10:38:42;2.70;98.10
73576;DHT22;61859;49.204;8.140;2023-02-15T10:44:05;2.60;98.80
73576;DHT22;61859;49.204;8.140;2023-02-15T10:57:17;3.10;97.60
73576;DHT22;61859;49.204;8.140;2023-02-15T11:05:27;3.20;96.70
73576;DHT22;61859;49.204;8.140;2023-02-15T11:07:58;3.10;97.20
73576;DHT22;61859;49.204;8.140;2023-02-15T11:10:35;3.20;97.00
73576;DHT22;61859;49.204;8.140;2023-02-15T11:13:16;3.30;96.80
73576;DHT22;61859;49.204;8.140;2023-02-15T11:15:51;3.40;96.60
73576;DHT22;61859;49.204;8.140;2023-02-15T11:18:23;3.60;96.30
73576;DHT22;61859;49.204;8.140;2023-02-15T11:21:01;3.50;94.80
73576;DHT22;61859;49.204;8.140;2023-02-15T11:23:27;3.30;95.60
73576;DHT22;61859;49.204;8.140;2023-02-15T11:25:59;3.20;96.30
73576;DHT22;61859;49.204;8.140;2023-02-15T11:28:37;3.00;96.60
73576;DHT22;61859;49.204;8.140;2023-02-15T11:31:23;3.20;96.70
73576;DHT22;61859;49.204;8.140;2023-02-15T11:34:56;3.30;96.90
73576;DHT22;61859;49.204;8.140;2023-02-15T11:37:06;3.50;96.60
73576;DHT22;61859;49.204;8.140;2023-02-15T11:39:34;3.50;95.50
73576;DHT22;61859;49.204;8.140;2023-02-15T11:42:06;3.40;95.40
73576;DHT22;61859;49.204;8.140;2023-02-15T11:44:35;3.50;95.60
73576;DHT22;61859;49.204;8.140;2023-02-15T11:47:02;3.60;95.90
73576;DHT22;61859;49.204;8.140;2023-02-15T11:49:33;3.70;95.20
73576;DHT22;61859;49.204;8.140;2023-02-15T11:52:02;4.10;95.00
73576;DHT22;61859;49.204;8.140;2023-02-15T11:54:32;4.10;93.50
73576;DHT22;61859;49.204;8.140;2023-02-15T11:57:28;4.30;93.70
73576;DHT22;61859;49.204;8.140;2023-02-15T12:00:00;4.10;93.80
73576;DHT22;61859;49.204;8.140;2023-02-15T12:02:30;4.50;93.50
73576;DHT22;61859;49.204;8.140;2023-02-15T12:05:00;4.60;92.30
73576;DHT22;61859;49.204;8.140;2023-02-15T12:07:35;4.40;92.40
73576;DHT22;61859;49.204;8.140;2023-02-15T12:10:24;4.80;91.90
73576;DHT22;61859;49.204;8.140;2023-02-15T12:13:12;4.90;91.80
73576;DHT22;61859;49.204;8.140;2023-02-15T12:15:42;4.90;91.70
73576;DHT22;61859;49.204;8.140;2023-02-15T12:18:33;5.00;91.10
73576;DHT22;61859;49.204;8.140;2023-02-15T12:21:03;5.00;91.60
73576;DHT22;61859;49.204;8.140;2023-02-15T12:23:32;4.90;90.70
73576;DHT22;61859;49.204;8.140;2023-02-15T12:25:58;5.00;90.90
73576;DHT22;61859;49.204;8.140;2023-02-15T12:28:32;5.10;90.20
73576;DHT22;61859;49.204;8.140;2023-02-15T12:30:59;5.10;90.60
73576;DHT22;61859;49.204;8.140;2023-02-15T12:33:39;5.10;90.50
73576;DHT22;61859;49.204;8.140;2023-02-15T12:36:15;5.30;89.60
73576;DHT22;61859;49.204;8.140;2023-02-15T12:38:42;5.60;90.00
73576;DHT22;61859;49.204;8.140;2023-02-15T12:41:24;5.50;88.50
73576;DHT22;61859;49.204;8.140;2023-02-15T12:46:40;5.80;87.50
73576;DHT22;61859;49.204;8.140;2023-02-15T12:51:45;6.00;86.60
73576;DHT22;61859;49.204;8.140;2023-02-15T12:54:24;6.20;86.70
73576;DHT22;61859;49.204;8.140;2023-02-15T12:56:51;6.30;86.20
73576;DHT22;61859;49.204;8.140;2023-02-15T12:59:18;6.20;86.30
73576;DHT22;61859;49.204;8.140;2023-02-15T13:01:47;6.40;85.70
73576;DHT22;61859;49.204;8.140;2023-02-15T13:04:25;6.50;85.40
73576;DHT22;61859;49.204;8.140;2023-02-15T13:06:53;6.50;84.70
73576;DHT22;61859;49.204;8.140;2023-02-15T13:09:37;6.30;85.10
73576;DHT22;61859;49.204;8.140;2023-02-15T13:12:18;6.30;86.20
73576;DHT22;61859;49.204;8.140;2023-02-15T13:14:46;6.30;85.80
73576;DHT22;61859;49.204;8.140;2023-02-15T13:17:15;6.30;85.40
73576;DHT22;61859;49.204;8.140;2023-02-15T13:19:48;6.40;85.30
73576;DHT22;61859;49.204;8.140;2023-02-15T13:22:22;6.50;85.30
73576;DHT22;61859;49.204;8.140;2023-02-15T13:24:53;6.50;85.60
73576;DHT22;61859;49.204;8.140;2023-02-15T13:27:23;7.00;85.50
73576;DHT22;61859;49.204;8.140;2023-02-15T13:29:54;7.00;84.70
73576;DHT22;61859;49.204;8.140;2023-02-15T13:32:28;7.40;83.30
73576;DHT22;61859;49.204;8.140;2023-02-15T13:34:57;8.00;83.30
73576;DHT22;61859;49.204;8.140;2023-02-15T13:42:40;8.00;78.30
73576;DHT22;61859;49.204;8.140;2023-02-15T13:51:31;7.20;81.50
73576;DHT22;61859;49.204;8.140;2023-02-15T13:54:17;7.20;82.10
73576;DHT22;61859;49.204;8.140;2023-02-15T14:00:02;7.70;81.80
73576;DHT22;61859;49.204;8.140;2023-02-15T14:02:49;8.00;81.40
73576;DHT22;61859;49.204;8.140;2023-02-15T14:08:21;8.40;77.50
73576;DHT22;61859;49.204;8.140;2023-02-15T14:11:01;8.60;77.00
73576;DHT22;61859;49.204;8.140;2023-02-15T14:13:44;8.30;77.50
73576;DHT22;61859;49.204;8.140;2023-02-15T14:18:55;8.10;79.00
73576;DHT22;61859;49.204;8.140;2023-02-15T14:21:32;8.30;79.20
73576;DHT22;61859;49.204;8.140;2023-02-15T14:24:33;9.10;77.90
73576;DHT22;61859;49.204;8.140;2023-02-15T14:30:03;9.90;71.80
73576;DHT22;61859;49.204;8.140;2023-02-15T14:35:03;9.50;74.70
73576;DHT22;61859;49.204;8.140;2023-02-15T14:43:30;10.80;69.40
73576;DHT22;61859;49.204;8.140;2023-02-15T14:48:45;10.00;69.80
73576;DHT22;61859;49.204;8.140;2023-02-15T14:54:10;8.90;74.40
73576;DHT22;61859;49.204;8.140;2023-02-15T14:56:36;8.60;76.00
73576;DHT22;61859;49.204;8.140;2023-02-15T14:59:18;8.30;77.30
73576;DHT22;61859;49.204;8.140;2023-02-15T15:02:00;8.00;77.90
73576;DHT22;61859;49.204;8.140;2023-02-15T15:04:34;7.90;79.20
73576;DHT22;61859;49.204;8.140;2023-02-15T15:07:08;8.00;79.70
73576;DHT22;61859;49.204;8.140;2023-02-15T15:09:37;8.30;78.50
73576;DHT22;61859;49.204;8.140;2023-02-15T15:14:48;8.00;79.00
73576;DHT22;61859;49.204;8.140;2023-02-15T15:22:44;6.90;82.50
73576;DHT22;61859;49.204;8.140;2023-02-15T15:27:51;6.10;85.80
73576;DHT22;61859;49.204;8.140;2023-02-15T15:35:31;5.60;88.20
73576;DHT22;61859;49.204;8.140;2023-02-15T15:43:54;5.80;89.90
73576;DHT22;61859;49.204;8.140;2023-02-15T15:49:19;6.00;88.20
73576;DHT22;61859;49.204;8.140;2023-02-15T15:51:46;5.70;88.30
73576;DHT22;61859;49.204;8.140;2023-02-15T15:54:20;5.60;88.50
73576;DHT22;61859;49.204;8.140;2023-02-15T15:56:59;5.30;89.20
73576;DHT22;61859;49.204;8.140;2023-02-15T15:59:28;5.20;89.60
73576;DHT22;61859;49.204;8.140;2023-02-15T16:01:55;5.30;89.90
73576;DHT22;61859;49.204;8.140;2023-02-15T16:04:28;5.20;90.30
73576;DHT22;61859;49.204;8.140;2023-02-15T16:06:55;4.90;90.40
73576;DHT22;61859;49.204;8.140;2023-02-15T16:09:26;4.70;90.70
73576;DHT22;61859;49.204;8.140;2023-02-15T16:11:57;4.70;91.80
73576;DHT22;61859;49.204;8.140;2023-02-15T16:14:38;4.30;92.70
73576;DHT22;61859;49.204;8.140;2023-02-15T16:17:08;4.30;93.00
73576;DHT22;61859;49.204;8.140;2023-02-15T16:19:41;4.00;93.40
73576;DHT22;61859;49.204;8.140;2023-02-15T16:22:18;3.90;93.60
73576;DHT22;61859;49.204;8.140;2023-02-15T16:27:45;3.60;94.70
73576;DHT22;61859;49.204;8.140;2023-02-15T16:30:31;3.40;94.90
73576;DHT22;61859;49.204;8.140;2023-02-15T16:35:30;3.00;95.50
73576;DHT22;61859;49.204;8.140;2023-02-15T16:37:55;3.00;95.40
73576;DHT22;61859;49.204;8.140;2023-02-15T16:43:01;2.70;96.40
73576;DHT22;61859;49.204;8.140;2023-02-15T16:45:28;2.60;96.30
73576;DHT22;61859;49.204;8.140;2023-02-15T16:47:57;2.30;96.60
73576;DHT22;61859;49.204;8.140;2023-02-15T16:50:30;2.30;96.90
73576;DHT22;61859;49.204;8.140;2023-02-15T16:52:57;2.10;97.20
73576;DHT22;61859;49.204;8.140;2023-02-15T16:55:28;2.10;97.40
73576;DHT22;61859;49.204;8.140;2023-02-15T16:57:57;2.00;97.60
73576;DHT22;61859;49.204;8.140;2023-02-15T17:00:31;1.60;97.80
73576;DHT22;61859;49.204;8.140;2023-02-15T17:03:06;1.50;98.00
73576;DHT22;61859;49.204;8.140;2023-02-15T17:05:53;1.40;98.20
73576;DHT22;61859;49.204;8.140;2023-02-15T17:08:26;1.20;98.20
73576;DHT22;61859;49.204;8.140;2023-02-15T17:13:24;0.80;99.00
73576;DHT22;61859;49.204;8.140;2023-02-15T17:18:40;0.90;99.30
73576;DHT22;61859;49.204;8.140;2023-02-15T17:21:19;0.60;99.90
73576;DHT22;61859;49.204;8.140;2023-02-15T17:23:50;0.70;99.90
73576;DHT22;61859;49.204;8.140;2023-02-15T17:26:22;0.60;99.90
73576;DHT22;61859;49.204;8.140;2023-02-15T17:28:57;0.60;99.90
73576;DHT22;61859;49.204;8.140;2023-02-15T17:31:25;0.40;99.90
73576;DHT22;61859;49.204;8.140;2023-02-15T17:33:54;0.40;99.90
73576;DHT22;61859;49.204;8.140;2023-02-15T17:36:23;0.50;99.90
73576;DHT22;61859;49.204;8.140;2023-02-15T17:39:00;0.40;99.90
73576;DHT22;61859;49.204;8.140;2023-02-15T17:41:27;0.60;99.90
73576;DHT22;61859;49.204;8.140;2023-02-15T17:43:53;0.60;99.90
73576;DHT22;61859;49.204;8.140;2023-02-15T17:46:19;1.00;99.90
73576;DHT22;61859;49.204;8.140;2023-02-15T17:48:49;1.10;99.90
73576;DHT22;61859;49.204;8.140;2023-02-15T17:51:16;1.30;99.90
73576;DHT22;61859;49.204;8.140;2023-02-15T17:53:43;1.20;99.90
73576;DHT22;61859;49.204;8.140;2023-02-15T17:56:36;1.50;99.90
73576;DHT22;61859;49.204;8.140;2023-02-15T17:59:02;1.60;99.90
73576;DHT22;61859;49.204;8.140;2023-02-15T18:01:33;1.50;99.90
73576;DHT22;61859;49.204;8.140;2023-02-15T18:04:17;1.50;99.90
73576;DHT22;61859;49.204;8.140;2023-02-15T18:07:02;1.30;99.90
73576;DHT22;61859;49.204;8.140;2023-02-15T18:09:46;1.10;99.90
73576;DHT22;61859;49.204;8.140;2023-02-15T18:12:33;1.20;99.90
73576;DHT22;61859;49.204;8.140;2023-02-15T18:14:59;1.10;99.90
73576;DHT22;61859;49.204;8.140;2023-02-15T18:17:38;1.20;99.90
73576;DHT22;61859;49.204;8.140;2023-02-15T18:20:10;1.40;99.90
73576;DHT22;61859;49.204;8.140;2023-02-15T18:22:39;1.50;99.90
73576;DHT22;61859;49.204;8.140;2023-02-15T18:25:15;1.60;99.90
73576;DHT22;61859;49.204;8.140;2023-02-15T18:27:41;1.40;99.90
73576;DHT22;61859;49.204;8.140;2023-02-15T18:30:07;1.70;99.90
73576;DHT22;61859;49.204;8.140;2023-02-15T18:32:35;1.70;99.90
73576;DHT22;61859;49.204;8.140;2023-02-15T18:35:03;1.80;99.90
73576;DHT22;61859;49.204;8.140;2023-02-15T18:37:30;1.70;99.90
73576;DHT22;61859;49.204;8.140;2023-02-15T18:39:58;1.90;99.90